Terminal Aerodrome Forecast
Issued by NWS Jackson, KY

Home | Current Version | Previous Version | Text Only | Print | Product List | Glossary On
Versions: 1 2 3 4 5 6 7 8 9 10 11 12 13 14
000
FTUS43 KJKL 281700
TAFJKL
TAF
KJKL 281739Z 2818/2918 VRB04KT P6SM BKN250
     FM291300 18008KT P6SM VCSH BKN050
     FM291600 20010G16KT P6SM -SHRA BKN030 BKN050=

USA.gov is the U.S. government's official web portal to all federal, state and local government web resources and services.